Time;durP1;ratioP1;P1;durP2;ratioP2;P2;SDS_P1;SDS_P2;PMS_P1;PMS_P2;Temp;Humidity;BMP_temperature;BMP_pressure;BME280_temperature;BME280_humidity;BME280_pressure;Samples;Min_cycle;Max_cycle;Signal;HPM_P1;HPM_P2
2022/08/23 00:02:25;;;;;;;4.93;1.80;;;;;;;;;;4892095;29;20067;-76
2022/08/23 00:04:52;;;;;;;3.85;1.77;;;;;;;;;;4873648;29;20116;-75
2022/08/23 00:07:40;;;;;;;4.05;2.25;;;;;;;;;;4906159;29;20064;-76
2022/08/23 00:10:14;;;;;;;5.72;2.47;;;;;;;;;;4904436;29;20128;-75
2022/08/23 00:12:43;;;;;;;2.20;1.90;;;;;;;;;;4900059;29;20123;-76
2022/08/23 00:15:13;;;;;;;2.83;2.08;;;;;;;;;;4889320;29;20135;-75
2022/08/23 00:17:41;;;;;;;5.22;2.17;;;;;;;;;;4923748;29;20056;-76
2022/08/23 00:20:11;;;;;;;5.63;2.25;;;;;;;;;;4919281;29;20475;-77
2022/08/23 00:22:38;;;;;;;5.43;2.40;;;;;;;;;;4903170;29;20162;-77
2022/08/23 00:25:07;;;;;;;10.63;2.58;;;;;;;;;;4887382;29;20056;-76
2022/08/23 00:27:34;;;;;;;4.70;2.25;;;;;;;;;;4902334;29;20131;-77
2022/08/23 00:30:03;;;;;;;4.70;2.20;;;;;;;;;;4917542;29;20479;-77
2022/08/23 00:32:32;;;;;;;4.20;1.95;;;;;;;;;;4886822;29;20056;-77
2022/08/23 00:34:59;;;;;;;3.22;2.00;;;;;;;;;;4887692;29;20048;-77
2022/08/23 00:37:28;;;;;;;2.72;2.15;;;;;;;;;;4906521;29;20143;-77
2022/08/23 00:39:54;;;;;;;3.47;1.80;;;;;;;;;;4911454;29;20052;-78
2022/08/23 00:48:38;;;;;;;2.00;1.80;;;;;;;;;;4903654;29;20059;-77
2022/08/23 00:51:21;;;;;;;4.20;1.90;;;;;;;;;;4908359;29;20052;-76
2022/08/23 00:53:52;;;;;;;4.70;2.25;;;;;;;;;;4895929;29;20052;-77
2022/08/23 00:56:21;;;;;;;3.63;1.90;;;;;;;;;;4898225;29;20143;-76
2022/08/23 00:58:48;;;;;;;2.83;1.90;;;;;;;;;;4897044;29;20060;-77
2022/08/23 01:01:16;;;;;;;3.38;1.95;;;;;;;;;;4881982;29;20060;-75
2022/08/23 01:03:45;;;;;;;4.32;2.30;;;;;;;;;;4898464;29;20489;-77
2022/08/23 01:06:28;;;;;;;2.55;1.90;;;;;;;;;;4882902;29;20067;-76
2022/08/23 01:08:58;;;;;;;3.92;2.40;;;;;;;;;;4896931;29;20487;-76
2022/08/23 01:11:32;;;;;;;2.22;1.90;;;;;;;;;;4896983;29;20516;-75
2022/08/23 01:14:16;;;;;;;3.33;2.30;;;;;;;;;;4896580;29;20135;-74
2022/08/23 01:16:49;;;;;;;3.63;2.35;;;;;;;;;;4893969;29;20068;-76
2022/08/23 01:19:38;;;;;;;3.35;2.20;;;;;;;;;;4847792;29;20048;-76
2022/08/23 01:22:28;;;;;;;4.97;2.20;;;;;;;;;;4878446;29;20494;-76
2022/08/23 01:24:55;;;;;;;3.60;2.03;;;;;;;;;;4869356;29;20059;-76
2022/08/23 01:27:35;;;;;;;4.07;2.20;;;;;;;;;;4869076;29;20096;-75
2022/08/23 01:30:06;;;;;;;6.05;2.15;;;;;;;;;;4866081;29;20087;-76
2022/08/23 01:32:35;;;;;;;4.00;2.20;;;;;;;;;;4865996;29;20053;-75
2022/08/23 01:35:02;;;;;;;5.28;2.38;;;;;;;;;;4866132;29;20056;-76
2022/08/23 01:37:28;;;;;;;3.78;2.20;;;;;;;;;;4865777;29;20067;-75
2022/08/23 01:39:55;;;;;;;4.10;2.53;;;;;;;;;;4896148;29;20151;-76
2022/08/23 01:42:22;;;;;;;4.57;2.28;;;;;;;;;;4857052;29;1163720;-75
2022/08/23 01:44:49;;;;;;;3.15;2.10;;;;;;;;;;4866011;29;20088;-75
2022/08/23 01:47:16;;;;;;;3.05;2.50;;;;;;;;;;4897455;29;20091;-75
2022/08/23 01:49:43;;;;;;;3.83;1.90;;;;;;;;;;4896678;29;20087;-75
2022/08/23 01:52:09;;;;;;;2.38;2.15;;;;;;;;;;4897443;29;20500;-75
2022/08/23 01:54:36;;;;;;;5.38;3.20;;;;;;;;;;4881852;29;20134;-76
2022/08/23 01:57:05;;;;;;;7.50;2.50;;;;;;;;;;4866393;29;20095;-75
2022/08/23 01:59:32;;;;;;;4.32;2.72;;;;;;;;;;4896640;29;20148;-75
2022/08/23 02:01:59;;;;;;;4.78;2.97;;;;;;;;;;4896926;29;20497;-75
2022/08/23 02:04:26;;;;;;;5.65;2.45;;;;;;;;;;4881600;29;20068;-75
2022/08/23 02:06:53;;;;;;;3.13;2.75;;;;;;;;;;4897063;29;20476;-75
2022/08/23 02:09:20;;;;;;;3.33;2.90;;;;;;;;;;4896584;29;20103;-75
2022/08/23 02:11:51;;;;;;;2.65;2.45;;;;;;;;;;4897279;29;20120;-75
2022/08/23 02:14:19;;;;;;;3.00;2.60;;;;;;;;;;4881286;29;20084;-75
2022/08/23 02:16:48;;;;;;;3.13;2.85;;;;;;;;;;4897119;29;20139;-75
2022/08/23 02:19:28;;;;;;;3.37;2.50;;;;;;;;;;4896729;29;20112;-75
2022/08/23 02:21:55;;;;;;;3.25;2.30;;;;;;;;;;4881311;29;20087;-76
2022/08/23 02:24:23;;;;;;;3.35;2.75;;;;;;;;;;4896531;29;20470;-75
2022/08/23 02:26:52;;;;;;;3.90;2.83;;;;;;;;;;4872673;29;20083;-75
2022/08/23 02:29:23;;;;;;;5.38;2.53;;;;;;;;;;4895430;29;20144;-75
2022/08/23 02:31:50;;;;;;;2.80;2.25;;;;;;;;;;4871758;29;20048;-77
2022/08/23 02:34:17;;;;;;;3.92;2.08;;;;;;;;;;4896573;29;20509;-75
2022/08/23 02:37:02;;;;;;;3.90;2.45;;;;;;;;;;4874212;29;20099;-76
2022/08/23 02:39:29;;;;;;;4.47;2.90;;;;;;;;;;4880993;29;20048;-76
2022/08/23 02:41:56;;;;;;;5.00;2.75;;;;;;;;;;4879218;29;20056;-76
2022/08/23 02:44:23;;;;;;;4.63;2.70;;;;;;;;;;4877724;29;20502;-77
2022/08/23 02:46:50;;;;;;;4.95;2.70;;;;;;;;;;4847426;29;20139;-76
2022/08/23 02:49:17;;;;;;;3.60;2.78;;;;;;;;;;4862598;29;20064;-76
2022/08/23 02:51:44;;;;;;;3.08;2.40;;;;;;;;;;4894783;29;20063;-76
2022/08/23 02:54:11;;;;;;;3.00;2.70;;;;;;;;;;4896277;29;20075;-76
2022/08/23 02:56:38;;;;;;;4.95;2.70;;;;;;;;;;4895457;29;20060;-76
2022/08/23 02:59:05;;;;;;;3.95;2.53;;;;;;;;;;4880742;29;20060;-76
2022/08/23 03:01:35;;;;;;;3.08;2.55;;;;;;;;;;4880914;29;20062;-75
2022/08/23 03:04:04;;;;;;;2.40;2.17;;;;;;;;;;4881204;29;20055;-75
2022/08/23 03:06:31;;;;;;;4.25;2.70;;;;;;;;;;4880872;29;20052;-75
2022/08/23 03:08:58;;;;;;;3.33;3.03;;;;;;;;;;4895822;29;20053;-75
2022/08/23 03:11:25;;;;;;;4.95;3.05;;;;;;;;;;4865232;29;20520;-75
2022/08/23 03:13:53;;;;;;;6.03;2.70;;;;;;;;;;4880359;29;20064;-75
2022/08/23 03:16:20;;;;;;;6.78;3.25;;;;;;;;;;4865295;29;20053;-76
2022/08/23 03:18:47;;;;;;;4.68;2.97;;;;;;;;;;4879947;29;20056;-76
2022/08/23 03:21:14;;;;;;;4.65;2.78;;;;;;;;;;4880296;29;20506;-76
2022/08/23 03:23:41;;;;;;;4.43;3.00;;;;;;;;;;4865437;29;20653;-76
2022/08/23 03:26:10;;;;;;;5.00;3.47;;;;;;;;;;4880397;29;20061;-76
2022/08/23 03:28:38;;;;;;;3.83;2.90;;;;;;;;;;4881427;29;20056;-77
2022/08/23 03:31:05;;;;;;;2.67;2.45;;;;;;;;;;4896055;29;20053;-76
2022/08/23 03:33:33;;;;;;;4.03;3.20;;;;;;;;;;4911559;29;20493;-75
2022/08/23 03:36:01;;;;;;;3.70;2.80;;;;;;;;;;4911443;29;20140;-75
2022/08/23 03:38:28;;;;;;;3.05;2.67;;;;;;;;;;4911288;29;20095;-75
2022/08/23 03:40:54;;;;;;;5.43;2.78;;;;;;;;;;4901894;29;20580;-75
2022/08/23 03:43:21;;;;;;;5.00;3.22;;;;;;;;;;4892474;29;20139;-76
2022/08/23 03:45:48;;;;;;;3.22;2.85;;;;;;;;;;4897033;29;20516;-78
2022/08/23 03:48:16;;;;;;;3.97;3.10;;;;;;;;;;4902067;29;20060;-77
2022/08/23 03:50:43;;;;;;;4.75;3.25;;;;;;;;;;4887255;29;20053;-75
2022/08/23 03:53:10;;;;;;;3.92;3.47;;;;;;;;;;4877005;29;20572;-75
2022/08/23 03:55:39;;;;;;;3.92;3.25;;;;;;;;;;4880287;29;20516;-76
2022/08/23 03:58:09;;;;;;;4.53;3.10;;;;;;;;;;4895590;29;20064;-76
2022/08/23 04:00:36;;;;;;;7.15;3.60;;;;;;;;;;4895830;29;20131;-76
2022/08/23 04:03:04;;;;;;;4.13;3.20;;;;;;;;;;4912268;29;20131;-76
2022/08/23 04:05:31;;;;;;;7.07;3.17;;;;;;;;;;4880149;29;20091;-76
2022/08/23 04:07:57;;;;;;;3.50;3.20;;;;;;;;;;4883649;29;20490;-76
2022/08/23 04:10:25;;;;;;;3.72;3.33;;;;;;;;;;4879886;29;20049;-76
2022/08/23 04:12:53;;;;;;;4.03;3.63;;;;;;;;;;4880153;29;20056;-76
2022/08/23 04:15:21;;;;;;;4.00;3.53;;;;;;;;;;4880099;29;20052;-76
2022/08/23 04:17:48;;;;;;;4.00;3.65;;;;;;;;;;4880061;29;20156;-76
2022/08/23 04:20:16;;;;;;;4.38;3.47;;;;;;;;;;4880066;29;20132;-76
2022/08/23 04:22:43;;;;;;;3.85;3.40;;;;;;;;;;4864851;29;20525;-76
2022/08/23 04:25:13;;;;;;;5.55;3.20;;;;;;;;;;4879943;29;20318;-75
2022/08/23 04:27:59;;;;;;;3.70;3.15;;;;;;;;;;4881307;29;20065;-75
2022/08/23 04:30:27;;;;;;;4.40;3.13;;;;;;;;;;4864832;29;20064;-75
2022/08/23 04:32:53;;;;;;;5.50;3.10;;;;;;;;;;4864627;29;20133;-75
2022/08/23 04:35:21;;;;;;;4.57;3.42;;;;;;;;;;4895233;29;20506;-75
2022/08/23 04:37:48;;;;;;;8.50;3.72;;;;;;;;;;4879470;29;20060;-75
2022/08/23 04:43:00;;;;;;;4.07;3.17;;;;;;;;;;4893982;29;20063;-75
2022/08/23 04:45:27;;;;;;;4.05;3.33;;;;;;;;;;4898282;29;20119;-75
2022/08/23 04:47:54;;;;;;;3.53;3.22;;;;;;;;;;4882732;29;20062;-74
2022/08/23 04:50:21;;;;;;;4.18;2.88;;;;;;;;;;4898278;29;20414;-75
2022/08/23 04:52:48;;;;;;;5.72;3.63;;;;;;;;;;4899038;29;20135;-75
2022/08/23 04:55:15;;;;;;;6.90;3.20;;;;;;;;;;4913657;29;20121;-76
2022/08/23 04:57:42;;;;;;;4.47;2.97;;;;;;;;;;4898183;29;20048;-75
2022/08/23 05:00:11;;;;;;;4.15;3.53;;;;;;;;;;4897898;29;20080;-75
2022/08/23 05:02:38;;;;;;;6.00;3.30;;;;;;;;;;4898231;29;20466;-76
2022/08/23 05:05:07;;;;;;;4.97;3.15;;;;;;;;;;4882952;29;20139;-76
2022/08/23 05:07:34;;;;;;;3.33;3.00;;;;;;;;;;4902436;29;20087;-78
2022/08/23 05:10:11;;;;;;;5.65;3.00;;;;;;;;;;4888514;29;20065;-79
2022/08/23 05:12:38;;;;;;;5.18;3.65;;;;;;;;;;4901155;29;20062;-79
2022/08/23 05:15:06;;;;;;;3.85;3.35;;;;;;;;;;4900670;29;20107;-77
2022/08/23 05:17:33;;;;;;;4.55;3.28;;;;;;;;;;4898560;29;20139;-78
2022/08/23 05:20:00;;;;;;;4.82;3.22;;;;;;;;;;4902588;29;20084;-78
2022/08/23 05:22:27;;;;;;;4.07;3.13;;;;;;;;;;4886665;29;20060;-75
2022/08/23 05:24:54;;;;;;;5.72;3.60;;;;;;;;;;4897587;29;20532;-76
2022/08/23 05:27:21;;;;;;;9.07;3.60;;;;;;;;;;4898271;29;20048;-76
2022/08/23 05:29:48;;;;;;;5.88;3.63;;;;;;;;;;4896110;29;20135;-76
2022/08/23 05:32:15;;;;;;;4.72;3.35;;;;;;;;;;4881355;29;20124;-78
2022/08/23 05:34:42;;;;;;;6.57;3.90;;;;;;;;;;4896190;29;20091;-78
2022/08/23 05:37:09;;;;;;;8.88;3.60;;;;;;;;;;4897919;29;20139;-82
2022/08/23 05:39:35;;;;;;;5.13;3.30;;;;;;;;;;4893124;29;20056;-79
2022/08/23 05:42:07;;;;;;;4.10;3.70;;;;;;;;;;4887063;29;20416;-87
2022/08/23 05:44:36;;;;;;;4.88;3.60;;;;;;;;;;4882033;29;20095;-76
2022/08/23 05:47:07;;;;;;;3.85;3.35;;;;;;;;;;4895696;29;20056;-76
2022/08/23 05:49:37;;;;;;;6.35;4.15;;;;;;;;;;4880801;29;20056;-76
2022/08/23 05:52:05;;;;;;;5.72;3.65;;;;;;;;;;4880307;29;20128;-76
2022/08/23 05:54:33;;;;;;;4.85;3.90;;;;;;;;;;4864891;29;20087;-76
2022/08/23 05:56:59;;;;;;;5.72;3.45;;;;;;;;;;4861410;29;20132;-77
2022/08/23 05:59:26;;;;;;;5.20;3.58;;;;;;;;;;4892101;29;20135;-76
2022/08/23 06:01:53;;;;;;;7.20;4.10;;;;;;;;;;4892358;29;20124;-76
2022/08/23 06:04:20;;;;;;;6.97;3.88;;;;;;;;;;4892143;29;20124;-76
2022/08/23 06:06:47;;;;;;;5.28;3.47;;;;;;;;;;4892661;29;20132;-76
2022/08/23 06:09:15;;;;;;;7.50;3.97;;;;;;;;;;4876368;29;20147;-76
2022/08/23 06:11:44;;;;;;;7.63;3.55;;;;;;;;;;4876968;29;20080;-76
2022/08/23 06:14:10;;;;;;;5.63;3.35;;;;;;;;;;4876546;29;20148;-75
2022/08/23 06:16:41;;;;;;;5.45;3.40;;;;;;;;;;4881347;29;20056;-75
2022/08/23 06:19:08;;;;;;;4.32;2.95;;;;;;;;;;4895447;29;20135;-76
2022/08/23 06:21:35;;;;;;;5.78;3.17;;;;;;;;;;4886760;29;20133;-75
2022/08/23 06:24:03;;;;;;;5.47;3.15;;;;;;;;;;4895075;29;20517;-75
2022/08/23 06:26:37;;;;;;;5.53;3.30;;;;;;;;;;4908710;29;20096;-75
2022/08/23 06:29:09;;;;;;;5.10;2.92;;;;;;;;;;4875937;29;20053;-76
2022/08/23 06:31:46;;;;;;;5.93;2.95;;;;;;;;;;4858588;29;20076;-77
2022/08/23 06:34:22;;;;;;;5.10;3.05;;;;;;;;;;4873059;29;20096;-76
2022/08/23 06:36:55;;;;;;;4.88;2.70;;;;;;;;;;4864293;29;20136;-75
2022/08/23 06:39:26;;;;;;;9.95;2.67;;;;;;;;;;4870641;29;20167;-75
2022/08/23 06:41:57;;;;;;;4.50;2.70;;;;;;;;;;4906739;29;20140;-75
2022/08/23 06:44:23;;;;;;;3.80;2.80;;;;;;;;;;4889580;29;20131;-74
2022/08/23 06:46:50;;;;;;;6.47;3.08;;;;;;;;;;4922462;29;20044;-75
2022/08/23 06:49:17;;;;;;;4.93;3.22;;;;;;;;;;4907638;29;20115;-75
2022/08/23 06:51:47;;;;;;;3.83;2.88;;;;;;;;;;4923268;29;20560;-74
2022/08/23 06:54:16;;;;;;;5.00;2.80;;;;;;;;;;4892497;29;20104;-75
2022/08/23 06:56:43;;;;;;;4.82;2.75;;;;;;;;;;4919537;29;20111;-76
2022/08/23 06:59:10;;;;;;;2.75;2.42;;;;;;;;;;4907356;29;20135;-75
2022/08/23 07:01:58;;;;;;;4.85;2.72;;;;;;;;;;4901317;29;20559;-74
2022/08/23 07:04:37;;;;;;;2.72;2.20;;;;;;;;;;4920818;29;20064;-74
2022/08/23 07:07:25;;;;;;;2.92;2.70;;;;;;;;;;4935415;29;20040;-75
2022/08/23 07:10:10;;;;;;;4.30;2.35;;;;;;;;;;4920528;29;20122;-76
2022/08/23 07:12:41;;;;;;;2.45;1.98;;;;;;;;;;4909017;29;20130;-77
2022/08/23 07:15:10;;;;;;;4.18;1.90;;;;;;;;;;4897060;29;20056;-77
2022/08/23 07:17:36;;;;;;;3.97;2.13;;;;;;;;;;4932949;29;20029;-78
2022/08/23 07:20:04;;;;;;;4.57;2.10;;;;;;;;;;4950660;28;20028;-76
2022/08/23 07:22:30;;;;;;;2.53;2.08;;;;;;;;;;4920857;29;20096;-72
2022/08/23 07:24:57;;;;;;;3.00;2.60;;;;;;;;;;4915167;29;20079;-76
2022/08/23 07:27:24;;;;;;;4.35;2.42;;;;;;;;;;4923042;29;20163;-76
2022/08/23 07:29:51;;;;;;;6.32;3.63;;;;;;;;;;4907239;29;20047;-76
2022/08/23 07:32:17;;;;;;;2.97;2.55;;;;;;;;;;4951233;29;20134;-76
2022/08/23 07:34:44;;;;;;;5.75;2.58;;;;;;;;;;4935369;29;20048;-77
2022/08/23 07:37:12;;;;;;;8.60;2.53;;;;;;;;;;4932303;29;20088;-76
2022/08/23 07:39:41;;;;;;;4.40;2.20;;;;;;;;;;4928292;29;20425;-76
2022/08/23 07:42:08;;;;;;;5.40;2.35;;;;;;;;;;4921508;29;20052;-76
2022/08/23 07:44:49;;;;;;;5.05;2.63;;;;;;;;;;4922953;29;20481;-76
2022/08/23 07:47:18;;;;;;;4.28;2.22;;;;;;;;;;4913918;29;20054;-76
2022/08/23 07:49:45;;;;;;;2.55;2.25;;;;;;;;;;4926681;29;20056;-76
2022/08/23 07:52:12;;;;;;;6.18;2.75;;;;;;;;;;4923907;29;20128;-76
2022/08/23 07:54:39;;;;;;;3.33;2.30;;;;;;;;;;4926874;29;20143;-76
2022/08/23 07:57:11;;;;;;;6.90;2.50;;;;;;;;;;4895573;29;20048;-76
2022/08/23 07:59:38;;;;;;;6.03;2.20;;;;;;;;;;4927414;29;20463;-76
2022/08/23 08:02:04;;;;;;;4.55;2.58;;;;;;;;;;4926888;29;20493;-76
2022/08/23 08:04:31;;;;;;;5.18;2.30;;;;;;;;;;4924705;29;20086;-76
2022/08/23 08:06:59;;;;;;;4.97;2.00;;;;;;;;;;4925476;29;20221;-76
2022/08/23 08:09:46;;;;;;;5.75;1.98;;;;;;;;;;4908637;29;20057;-76
2022/08/23 08:12:12;;;;;;;4.10;2.33;;;;;;;;;;4924802;29;20060;-76
2022/08/23 08:14:40;;;;;;;2.67;1.98;;;;;;;;;;4926777;29;20478;-76
2022/08/23 08:17:07;;;;;;;3.95;1.90;;;;;;;;;;4955219;23;20080;-70
2022/08/23 08:19:34;;;;;;;3.67;1.92;;;;;;;;;;4909261;29;20060;-70
2022/08/23 08:22:00;;;;;;;4.85;1.80;;;;;;;;;;4915346;29;20070;-70
2022/08/23 08:24:27;;;;;;;3.65;1.85;;;;;;;;;;4935652;29;20058;-70
2022/08/23 08:26:54;;;;;;;3.33;2.00;;;;;;;;;;4944955;29;20062;-70
2022/08/23 08:29:20;;;;;;;3.67;1.92;;;;;;;;;;4954348;29;20051;-70
2022/08/23 08:31:48;;;;;;;5.20;2.10;;;;;;;;;;4949655;29;20051;-70
2022/08/23 08:34:19;;;;;;;3.53;2.25;;;;;;;;;;4951735;29;20134;-70
2022/08/23 08:36:48;;;;;;;4.43;2.33;;;;;;;;;;4918203;29;20134;-70
2022/08/23 08:39:18;;;;;;;3.38;2.25;;;;;;;;;;4921060;29;20059;-70
2022/08/23 08:41:48;;;;;;;6.20;2.55;;;;;;;;;;4921875;29;20058;-70
2022/08/23 08:44:35;;;;;;;2.30;1.48;;;;;;;;;;4954114;29;20043;-70
2022/08/23 08:47:24;;;;;;;4.80;2.22;;;;;;;;;;4937048;29;20617;-70
2022/08/23 08:49:59;;;;;;;3.85;1.73;;;;;;;;;;4937246;29;20051;-70
2022/08/23 08:52:27;;;;;;;3.85;2.20;;;;;;;;;;4953853;29;20043;-70
2022/08/23 08:55:04;;;;;;;6.85;2.30;;;;;;;;;;4920629;29;20114;-70
2022/08/23 08:57:35;;;;;;;6.32;2.17;;;;;;;;;;4953948;28;20058;-70
2022/08/23 09:00:10;;;;;;;2.25;1.73;;;;;;;;;;4919894;29;20054;-70
2022/08/23 09:02:36;;;;;;;4.22;1.80;;;;;;;;;;4921044;29;20043;-70
2022/08/23 09:05:18;;;;;;;5.95;1.90;;;;;;;;;;4920640;29;20066;-70
2022/08/23 09:08:10;;;;;;;2.50;1.92;;;;;;;;;;4919688;29;20055;-70
2022/08/23 09:11:04;;;;;;;3.30;1.40;;;;;;;;;;4951541;29;20047;-70
2022/08/23 09:14:15;;;;;;;6.93;1.88;;;;;;;;;;4954097;29;20047;-70
2022/08/23 09:16:52;;;;;;;3.58;2.17;;;;;;;;;;4913467;29;20505;-70
2022/08/23 09:19:21;;;;;;;5.28;1.80;;;;;;;;;;4934665;29;20098;-70
2022/08/23 09:21:53;;;;;;;2.38;1.35;;;;;;;;;;4919510;29;20043;-70
2022/08/23 09:24:20;;;;;;;3.33;1.80;;;;;;;;;;4936325;29;20058;-70
2022/08/23 09:26:46;;;;;;;3.97;1.90;;;;;;;;;;4936072;29;20051;-70
2022/08/23 09:29:24;;;;;;;3.67;1.70;;;;;;;;;;4901487;29;20083;-70
2022/08/23 09:31:54;;;;;;;3.97;2.25;;;;;;;;;;4912966;29;20048;-71
2022/08/23 09:34:41;;;;;;;4.00;1.48;;;;;;;;;;4920349;29;20429;-71
2022/08/23 09:37:11;;;;;;;3.08;1.30;;;;;;;;;;4929609;29;20047;-71
2022/08/23 09:39:43;;;;;;;1.92;1.40;;;;;;;;;;4953449;29;20051;-70
2022/08/23 09:42:39;;;;;;;3.53;2.70;;;;;;;;;;4918068;29;20075;-70
2022/08/23 09:45:27;;;;;;;3.15;1.40;;;;;;;;;;4917339;29;20062;-75
2022/08/23 09:48:00;;;;;;;2.15;1.63;;;;;;;;;;4904005;29;20549;-70
2022/08/23 09:50:30;;;;;;;5.07;1.50;;;;;;;;;;4929791;29;20477;-74
2022/08/23 09:52:59;;;;;;;2.45;1.63;;;;;;;;;;4920226;29;20051;-74
2022/08/23 09:55:38;;;;;;;1.88;1.65;;;;;;;;;;4933736;29;20074;-67
2022/08/23 09:58:18;;;;;;;1.48;1.38;;;;;;;;;;4934227;29;20060;-67
2022/08/23 10:00:45;;;;;;;3.78;1.48;;;;;;;;;;4937604;29;20059;-74
2022/08/23 10:03:26;;;;;;;2.55;1.30;;;;;;;;;;4920044;29;20084;-67
2022/08/23 10:05:58;;;;;;;2.72;1.73;;;;;;;;;;4928424;28;20065;-66
2022/08/23 10:08:32;;;;;;;3.03;1.23;;;;;;;;;;4933675;29;20421;-67
2022/08/23 10:11:11;;;;;;;2.53;1.65;;;;;;;;;;4929805;29;20056;-67
2022/08/23 10:13:39;;;;;;;3.38;1.65;;;;;;;;;;4952177;29;20077;-67
2022/08/23 10:16:09;;;;;;;1.95;1.40;;;;;;;;;;4919873;29;20106;-68
2022/08/23 10:18:42;;;;;;;2.42;1.10;;;;;;;;;;4951560;29;20047;-68
2022/08/23 10:21:15;;;;;;;3.67;1.70;;;;;;;;;;4951744;29;20043;-67
2022/08/23 10:24:20;;;;;;;4.38;1.73;;;;;;;;;;4951129;29;20055;-67
2022/08/23 10:26:52;;;;;;;2.95;1.20;;;;;;;;;;4929220;29;20051;-66
2022/08/23 10:29:40;;;;;;;2.58;1.35;;;;;;;;;;4949520;29;20486;-67
2022/08/23 10:32:28;;;;;;;2.63;1.20;;;;;;;;;;4941512;29;20486;-67
2022/08/23 10:35:02;;;;;;;1.75;1.25;;;;;;;;;;4951448;29;20051;-67
2022/08/23 10:37:51;;;;;;;2.47;1.25;;;;;;;;;;4935498;29;20529;-67
2022/08/23 10:40:28;;;;;;;2.15;1.27;;;;;;;;;;4936168;29;20058;-67
2022/08/23 10:43:03;;;;;;;2.08;1.20;;;;;;;;;;4945865;29;20060;-66
2022/08/23 10:45:37;;;;;;;2.28;1.75;;;;;;;;;;4951145;29;20047;-67
2022/08/23 10:48:21;;;;;;;4.30;1.50;;;;;;;;;;4918913;29;20392;-67
2022/08/23 10:50:59;;;;;;;1.48;1.30;;;;;;;;;;4950674;29;20051;-67
2022/08/23 10:53:33;;;;;;;2.17;1.20;;;;;;;;;;4920249;29;20047;-66
2022/08/23 10:56:02;;;;;;;2.60;1.17;;;;;;;;;;4934927;28;20059;-66
2022/08/23 10:58:37;;;;;;;6.72;2.13;;;;;;;;;;4920168;29;20545;-67
2022/08/23 11:01:04;;;;;;;7.45;1.52;;;;;;;;;;4934243;29;20055;-67
2022/08/23 11:03:39;;;;;;;3.42;1.23;;;;;;;;;;4919207;29;20321;-66
2022/08/23 11:06:34;;;;;;;2.60;1.40;;;;;;;;;;4919706;29;20047;-67
2022/08/23 11:09:07;;;;;;;2.80;1.50;;;;;;;;;;4949118;29;20043;-67
2022/08/23 11:11:42;;;;;;;3.90;1.73;;;;;;;;;;4931522;29;20048;-67
2022/08/23 11:14:11;;;;;;;3.10;1.50;;;;;;;;;;4935056;29;20058;-67
2022/08/23 11:16:41;;;;;;;3.15;1.60;;;;;;;;;;4919443;28;20055;-67
2022/08/23 11:19:13;;;;;;;3.22;1.63;;;;;;;;;;4922676;29;20317;-67
2022/08/23 11:21:46;;;;;;;1.55;1.23;;;;;;;;;;4933998;29;20063;-66
2022/08/23 11:24:12;;;;;;;3.70;2.00;;;;;;;;;;4921664;29;20147;-66
2022/08/23 11:26:40;;;;;;;2.60;1.30;;;;;;;;;;4955518;28;20055;-66
2022/08/23 11:29:06;;;;;;;1.58;1.45;;;;;;;;;;4956089;29;20051;-67
2022/08/23 11:31:57;;;;;;;2.85;1.40;;;;;;;;;;4938239;29;20529;-67
2022/08/23 11:34:26;;;;;;;2.13;1.20;;;;;;;;;;4937532;29;20179;-68
2022/08/23 11:37:20;;;;;;;1.77;1.42;;;;;;;;;;4955738;28;20621;-66
2022/08/23 11:39:58;;;;;;;2.00;1.30;;;;;;;;;;4955582;29;20561;-67
2022/08/23 11:42:36;;;;;;;3.22;1.20;;;;;;;;;;4954984;29;20078;-67
2022/08/23 11:45:26;;;;;;;5.07;1.60;;;;;;;;;;4953222;29;20055;-67
2022/08/23 11:48:36;;;;;;;1.73;1.40;;;;;;;;;;4942148;28;20047;-67
2022/08/23 11:51:27;;;;;;;3.42;1.70;;;;;;;;;;4913592;29;20143;-66
2022/08/23 11:53:53;;;;;;;2.85;1.70;;;;;;;;;;4956418;28;20049;-66
2022/08/23 11:56:48;;;;;;;3.58;1.23;;;;;;;;;;4954524;28;20417;-66
2022/08/23 11:59:33;;;;;;;2.90;1.45;;;;;;;;;;4952642;28;20053;-66
2022/08/23 12:02:38;;;;;;;1.73;1.35;;;;;;;;;;4952629;29;20044;-66
2022/08/23 12:05:16;;;;;;;2.15;1.65;;;;;;;;;;4953102;29;20062;-66
2022/08/23 12:08:06;;;;;;;2.17;1.48;;;;;;;;;;4953623;28;20057;-66
2022/08/23 12:10:45;;;;;;;5.57;1.85;;;;;;;;;;4941889;29;20047;-66
2022/08/23 12:13:21;;;;;;;1.52;1.40;;;;;;;;;;4954878;29;20417;-66
2022/08/23 12:16:10;;;;;;;2.53;1.40;;;;;;;;;;4952229;28;20058;-66
2022/08/23 12:18:45;;;;;;;3.33;1.40;;;;;;;;;;4938351;29;20130;-66
2022/08/23 12:21:35;;;;;;;2.33;1.35;;;;;;;;;;4952627;29;20059;-67
2022/08/23 12:24:13;;;;;;;1.52;1.30;;;;;;;;;;4939867;29;20054;-67
2022/08/23 12:26:46;;;;;;;1.42;1.13;;;;;;;;;;4954619;28;20051;-67
2022/08/23 12:29:33;;;;;;;;;;;;;;;;;;4934663;29;20524;-67
2022/08/23 12:32:24;;;;;;;2.17;1.25;;;;;;;;;;4936948;29;19926;-66
2022/08/23 12:35:19;;;;;;;3.08;1.75;;;;;;;;;;4954507;29;20353;-66
2022/08/23 12:38:16;;;;;;;4.93;1.88;;;;;;;;;;4922297;29;20066;-67
2022/08/23 12:40:46;;;;;;;2.90;1.50;;;;;;;;;;4923650;29;20061;-67
2022/08/23 12:43:12;;;;;;;2.15;1.20;;;;;;;;;;4922427;29;20053;-67
2022/08/23 12:45:59;;;;;;;1.67;1.10;;;;;;;;;;4952284;28;20058;-66
2022/08/23 12:48:31;;;;;;;1.88;1.17;;;;;;;;;;4921751;29;20055;-67
2022/08/23 12:51:06;;;;;;;3.83;1.55;;;;;;;;;;4937864;29;20058;-65
2022/08/23 12:53:39;;;;;;;3.33;1.35;;;;;;;;;;4937933;29;20414;-66
2022/08/23 12:56:24;;;;;;;2.63;1.60;;;;;;;;;;4932597;29;20134;-64
2022/08/23 12:59:01;;;;;;;1.58;1.30;;;;;;;;;;4937624;29;20530;-65
2022/08/23 13:01:35;;;;;;;5.32;1.30;;;;;;;;;;4932160;29;20053;-65
2022/08/23 13:04:12;;;;;;;1.98;1.20;;;;;;;;;;4950897;29;20138;-65
2022/08/23 13:06:44;;;;;;;1.67;1.27;;;;;;;;;;4925177;29;20562;-65
2022/08/23 13:09:23;;;;;;;2.45;1.25;;;;;;;;;;4936995;29;20526;-65
2022/08/23 13:11:51;;;;;;;3.60;1.65;;;;;;;;;;4933937;29;20051;-65
2022/08/23 13:14:27;;;;;;;1.98;1.27;;;;;;;;;;4936397;29;20565;-65
2022/08/23 13:16:58;;;;;;;1.35;1.00;;;;;;;;;;4921973;29;20066;-65
2022/08/23 13:19:30;;;;;;;2.80;1.35;;;;;;;;;;4920910;29;20552;-65
2022/08/23 13:22:21;;;;;;;1.08;0.90;;;;;;;;;;4936582;29;20078;-65
2022/08/23 13:25:05;;;;;;;2.13;1.50;;;;;;;;;;4953480;29;20502;-65
2022/08/23 13:27:54;;;;;;;2.95;1.30;;;;;;;;;;4952792;28;20047;-65
2022/08/23 13:30:29;;;;;;;1.95;1.30;;;;;;;;;;4936195;29;20043;-66
2022/08/23 13:33:08;;;;;;;3.67;1.33;;;;;;;;;;4952598;29;20061;-66
2022/08/23 13:35:40;;;;;;;2.27;1.20;;;;;;;;;;4953838;29;20047;-65
2022/08/23 13:38:06;;;;;;;3.00;1.38;;;;;;;;;;4953292;28;20342;-66
2022/08/23 13:41:13;;;;;;;2.78;1.30;;;;;;;;;;4953155;28;20047;-66
2022/08/23 13:43:42;;;;;;;1.60;1.40;;;;;;;;;;4906373;29;20047;-66
2022/08/23 13:46:23;;;;;;;2.35;1.25;;;;;;;;;;4953705;28;20156;-66
2022/08/23 13:49:01;;;;;;;3.13;1.38;;;;;;;;;;4921997;29;20122;-66
2022/08/23 13:51:39;;;;;;;1.20;1.10;;;;;;;;;;4950194;29;20138;-66
2022/08/23 13:54:08;;;;;;;1.33;1.17;;;;;;;;;;4948342;29;20526;-66
2022/08/23 13:56:49;;;;;;;2.72;1.27;;;;;;;;;;4930981;29;20061;-69
2022/08/23 13:59:38;;;;;;;1.80;1.10;;;;;;;;;;4924538;29;20055;-69
2022/08/23 14:02:11;;;;;;;3.20;1.30;;;;;;;;;;4953365;29;20055;-68
2022/08/23 14:04:37;;;;;;;5.05;1.38;;;;;;;;;;4910181;29;20057;-65
2022/08/23 14:07:04;;;;;;;1.65;1.30;;;;;;;;;;4912815;29;20059;-66
2022/08/23 14:09:32;;;;;;;1.20;1.10;;;;;;;;;;4934263;29;20058;-65
2022/08/23 14:12:01;;;;;;;3.13;1.45;;;;;;;;;;4936482;29;20051;-65
2022/08/23 14:14:30;;;;;;;2.47;1.15;;;;;;;;;;4921356;29;20047;-65
2022/08/23 14:16:57;;;;;;;3.05;1.20;;;;;;;;;;4942612;23;20059;-65
2022/08/23 14:19:30;;;;;;;2.00;1.30;;;;;;;;;;4936383;29;20052;-65
2022/08/23 14:22:17;;;;;;;2.50;1.17;;;;;;;;;;4940356;29;20058;-65
2022/08/23 14:24:44;;;;;;;2.13;1.20;;;;;;;;;;4944717;29;20146;-64
2022/08/23 14:27:11;;;;;;;1.88;1.45;;;;;;;;;;4936586;28;20055;-65
2022/08/23 14:29:37;;;;;;;2.15;1.38;;;;;;;;;;4927183;29;20430;-66
2022/08/23 14:32:04;;;;;;;2.30;1.42;;;;;;;;;;4940226;29;20051;-65
2022/08/23 14:34:31;;;;;;;1.52;1.23;;;;;;;;;;4945711;29;20051;-67
2022/08/23 14:36:57;;;;;;;2.30;1.30;;;;;;;;;;4944246;29;20513;-67
2022/08/23 14:39:44;;;;;;;2.42;1.38;;;;;;;;;;4941328;29;20097;-66
2022/08/23 14:42:11;;;;;;;3.47;1.60;;;;;;;;;;4941437;29;20502;-67
2022/08/23 14:44:37;;;;;;;2.58;1.35;;;;;;;;;;4925813;29;20044;-67
2022/08/23 14:47:05;;;;;;;4.53;1.73;;;;;;;;;;4940201;29;20143;-66
2022/08/23 14:49:32;;;;;;;3.03;1.10;;;;;;;;;;4946546;29;20050;-66
2022/08/23 14:51:58;;;;;;;3.95;1.60;;;;;;;;;;4939708;29;20065;-66
2022/08/23 14:54:25;;;;;;;2.70;1.30;;;;;;;;;;4938167;29;20040;-66
2022/08/23 14:56:52;;;;;;;3.22;1.80;;;;;;;;;;4943100;28;20062;-66
2022/08/23 14:59:19;;;;;;;3.15;1.42;;;;;;;;;;4940482;29;20506;-66
2022/08/23 15:01:48;;;;;;;2.10;1.17;;;;;;;;;;4938179;29;20057;-66
2022/08/23 15:04:20;;;;;;;5.55;1.38;;;;;;;;;;4924042;29;20055;-66
2022/08/23 15:06:47;;;;;;;5.72;1.63;;;;;;;;;;4941788;29;20051;-65
2022/08/23 15:09:34;;;;;;;1.60;1.50;;;;;;;;;;4940720;29;20055;-66
2022/08/23 15:12:02;;;;;;;6.55;1.70;;;;;;;;;;4938407;29;20055;-66
2022/08/23 15:14:49;;;;;;;3.20;1.60;;;;;;;;;;4939638;29;20062;-67
2022/08/23 15:17:16;;;;;;;1.55;1.45;;;;;;;;;;4943654;29;20057;-66
2022/08/23 15:19:43;;;;;;;2.38;1.95;;;;;;;;;;4938106;29;20059;-67
2022/08/23 15:22:09;;;;;;;2.53;1.33;;;;;;;;;;4939281;29;20058;-67
2022/08/23 15:24:47;;;;;;;2.80;1.60;;;;;;;;;;4940687;29;20055;-66